createdAt,value
2019-03-21T00:02:13.893Z,76.16
2019-03-21T00:05:38.398Z,76.13
2019-03-21T00:09:05.210Z,76.37
2019-03-21T00:12:29.361Z,76.33
2019-03-21T00:15:58.502Z,76.56
2019-03-21T00:19:22.482Z,76.53
2019-03-21T00:22:46.483Z,76.76
2019-03-21T00:26:10.466Z,76.60
2019-03-21T00:29:34.446Z,77.00
2019-03-21T00:32:58.449Z,77.09
2019-03-21T00:36:22.395Z,76.70
2019-03-21T00:39:47.242Z,76.65
2019-03-21T00:43:12.204Z,76.22
2019-03-21T00:46:38.599Z,76.66
2019-03-21T00:50:02.789Z,76.76
2019-03-21T00:53:26.688Z,76.37
2019-03-21T00:56:50.589Z,76.94
2019-03-21T01:00:20.746Z,76.65
2019-03-21T01:03:44.703Z,76.38
2019-03-21T01:07:08.638Z,76.01
2019-03-21T01:10:32.525Z,76.95
2019-03-21T01:13:56.423Z,77.48
2019-03-21T01:17:20.466Z,77.16
2019-03-21T01:20:44.436Z,76.86
2019-03-21T01:24:08.434Z,77.14
2019-03-21T01:27:32.359Z,77.36
2019-03-21T01:30:56.240Z,76.70
2019-03-21T01:34:20.109Z,77.13
2019-03-21T01:37:44.171Z,77.12
2019-03-21T01:41:08.182Z,77.08
2019-03-21T01:44:40.612Z,77.02
2019-03-21T01:47:58.042Z,76.91
2019-03-21T01:51:22.010Z,77.09
2019-03-21T01:54:45.868Z,77.62
2019-03-21T01:58:09.799Z,77.07
2019-03-21T02:01:34.152Z,77.01
2019-03-21T02:04:58.091Z,76.46
2019-03-21T02:08:22.002Z,76.51
2019-03-21T02:11:45.973Z,77.16
2019-03-21T02:15:11.208Z,75.81
2019-03-21T02:18:35.206Z,76.49
2019-03-21T02:21:59.256Z,75.79
2019-03-21T02:25:26.227Z,75.92
2019-03-21T02:28:50.085Z,76.19
2019-03-21T02:32:14.118Z,76.67
2019-03-21T02:35:38.349Z,76.63
2019-03-21T02:39:03.543Z,76.88
2019-03-21T02:42:29.351Z,77.15
2019-03-21T02:45:53.527Z,77.06
2019-03-21T02:49:17.388Z,76.77
2019-03-21T02:52:41.473Z,77.04
2019-03-21T02:56:07.888Z,76.33
2019-03-21T02:59:31.908Z,78.92
2019-03-21T03:02:57.943Z,76.43
2019-03-21T03:06:21.957Z,77.16
2019-03-21T03:09:45.852Z,76.94
2019-03-21T03:13:09.774Z,76.50
2019-03-21T03:16:33.692Z,76.86
2019-03-21T03:19:57.584Z,75.16
2019-03-21T03:23:21.491Z,76.20
2019-03-21T03:26:45.364Z,75.63
2019-03-21T03:30:14.117Z,76.43
2019-03-21T03:33:38.163Z,75.95
2019-03-21T03:37:02.076Z,75.78
2019-03-21T03:40:31.776Z,75.36
2019-03-21T03:43:55.672Z,76.22
2019-03-21T03:47:19.599Z,75.97
2019-03-21T03:50:43.504Z,75.53
2019-03-21T03:54:07.394Z,76.33
2019-03-21T03:57:31.680Z,75.21
2019-03-21T04:00:57.387Z,76.20
2019-03-21T04:04:21.518Z,76.81
2019-03-21T04:07:45.483Z,76.12
2019-03-21T04:11:09.460Z,75.44
2019-03-21T04:14:33.869Z,75.58
2019-03-21T04:17:57.864Z,75.23
2019-03-21T04:21:21.970Z,75.40
2019-03-21T04:24:46.696Z,75.78
2019-03-21T04:28:13.820Z,75.74
2019-03-21T04:31:37.804Z,75.41
2019-03-21T04:35:01.715Z,75.74
2019-03-21T04:38:26.601Z,75.22
2019-03-21T04:41:50.478Z,74.90
2019-03-21T04:45:19.128Z,75.04
2019-03-21T04:48:42.998Z,75.05
2019-03-21T04:52:06.992Z,75.11
2019-03-21T04:55:30.905Z,75.36
2019-03-21T04:58:55.922Z,75.35
2019-03-21T05:02:19.857Z,75.67
2019-03-21T05:05:44.193Z,75.52
2019-03-21T05:09:13.406Z,76.03
2019-03-21T05:12:38.476Z,75.74
2019-03-21T05:16:02.448Z,75.33
2019-03-21T05:19:26.557Z,75.30
2019-03-21T05:22:50.500Z,75.54
2019-03-21T05:26:14.709Z,76.20
2019-03-21T05:29:39.018Z,75.02
2019-03-21T05:33:02.905Z,75.07
2019-03-21T05:36:27.056Z,75.59
2019-03-21T05:39:51.107Z,75.12
2019-03-21T05:43:22.431Z,74.79
2019-03-21T05:46:46.360Z,75.24
2019-03-21T05:50:14.950Z,74.91
2019-03-21T05:53:39.682Z,74.71
2019-03-21T05:57:03.639Z,74.55
2019-03-21T06:00:33.289Z,74.51
2019-03-21T06:03:57.319Z,74.12
2019-03-21T06:07:56.917Z,73.85
2019-03-21T06:11:20.913Z,73.56
2019-03-21T06:14:51.495Z,73.02
2019-03-21T06:19:08.337Z,73.52
2019-03-21T06:22:57.788Z,73.77
2019-03-21T06:26:56.804Z,72.91
2019-03-21T06:30:20.841Z,72.56
2019-03-21T06:33:44.873Z,72.31
2019-03-21T06:37:08.826Z,72.45
2019-03-21T06:40:33.036Z,73.84
2019-03-21T06:43:57.105Z,72.11
2019-03-21T06:47:21.738Z,72.12
2019-03-21T06:50:45.730Z,72.39
2019-03-21T06:54:09.876Z,72.58
2019-03-21T06:57:33.991Z,72.36
2019-03-21T07:00:58.307Z,71.78
2019-03-21T07:04:22.334Z,71.48
2019-03-21T07:07:48.447Z,71.05
2019-03-21T07:11:12.731Z,70.92
2019-03-21T07:14:36.819Z,70.59
2019-03-21T07:18:00.799Z,71.10
2019-03-21T07:21:25.197Z,69.69
2019-03-21T07:24:49.127Z,70.03
2019-03-21T07:28:13.116Z,70.14
2019-03-21T07:31:37.104Z,70.41
2019-03-21T07:35:01.366Z,70.46
2019-03-21T07:38:25.474Z,70.03
2019-03-21T07:41:49.645Z,69.44
2019-03-21T07:45:13.717Z,69.30
2019-03-21T07:48:38.592Z,69.06
2019-03-21T07:52:02.707Z,69.10
2019-03-21T07:55:26.732Z,68.40
2019-03-21T07:58:50.793Z,67.91
2019-03-21T08:02:15.193Z,68.28
2019-03-21T08:05:40.529Z,66.99
2019-03-21T08:09:06.985Z,66.92
2019-03-21T08:12:30.992Z,66.69
2019-03-21T08:15:55.430Z,66.70
2019-03-21T08:19:19.421Z,66.44
2019-03-21T08:22:43.951Z,66.13
2019-03-21T08:26:07.934Z,65.50
2019-03-21T08:29:46.602Z,65.59
2019-03-21T08:33:15.016Z,65.03
2019-03-21T08:36:39.308Z,65.04
2019-03-21T08:40:04.462Z,64.39
2019-03-21T08:43:28.576Z,63.25
2019-03-21T08:46:52.566Z,63.54
2019-03-21T08:50:16.548Z,63.08
2019-03-21T08:53:40.681Z,62.74
2019-03-21T08:57:04.981Z,62.84
2019-03-21T09:00:34.190Z,62.76
2019-03-21T09:03:57.505Z,62.26
2019-03-21T09:07:21.579Z,62.49
2019-03-21T09:10:46.075Z,62.37
2019-03-21T09:14:13.345Z,61.97
2019-03-21T09:17:37.395Z,60.98
2019-03-21T09:21:01.369Z,61.76
2019-03-21T09:24:25.473Z,60.58
2019-03-21T09:27:49.598Z,59.27
2019-03-21T09:31:13.798Z,59.22
2019-03-21T09:34:38.293Z,59.34
2019-03-21T09:38:03.676Z,58.00
2019-03-21T09:41:27.872Z,57.99
2019-03-21T09:44:51.799Z,54.80
2019-03-21T09:48:15.770Z,55.32
2019-03-21T09:51:39.855Z,53.50
2019-03-21T09:55:04.570Z,52.60
2019-03-21T09:58:28.516Z,50.50
2019-03-21T10:01:54.471Z,49.14
2019-03-21T10:05:18.844Z,49.34
2019-03-21T10:08:42.956Z,45.06
2019-03-21T10:12:06.910Z,43.46
2019-03-21T10:15:31.098Z,39.21
2019-03-21T10:18:55.231Z,37.63
2019-03-21T10:22:19.413Z,38.18
2019-03-21T10:25:43.491Z,36.11
2019-03-21T10:29:07.608Z,33.87
2019-03-21T10:32:31.849Z,32.83
2019-03-21T10:35:55.882Z,31.66
2019-03-21T10:39:20.395Z,33.24
2019-03-21T10:42:44.404Z,32.40
2019-03-21T10:46:08.511Z,35.06
2019-03-21T10:49:32.492Z,32.11
2019-03-21T10:52:56.630Z,31.63
2019-03-21T10:56:20.527Z,31.26
2019-03-21T10:59:44.499Z,29.94
2019-03-21T11:03:09.944Z,32.06
2019-03-21T11:06:33.861Z,30.62
2019-03-21T11:09:58.016Z,30.17
2019-03-21T11:13:21.924Z,31.08
2019-03-21T11:16:45.903Z,31.20
2019-03-21T11:20:11.840Z,29.74
2019-03-21T11:23:36.482Z,30.17
2019-03-21T11:27:00.846Z,28.69
2019-03-21T11:30:34.085Z,29.54
2019-03-21T11:33:58.513Z,31.67
2019-03-21T11:37:22.702Z,30.19
2019-03-21T11:40:48.403Z,29.24
2019-03-21T11:44:12.641Z,28.66
2019-03-21T11:47:41.652Z,32.60
2019-03-21T11:51:02.440Z,28.59
2019-03-21T11:54:26.626Z,28.09
2019-03-21T11:57:50.599Z,27.74
2019-03-21T12:01:14.651Z,27.75
2019-03-21T12:04:38.824Z,29.42
2019-03-21T12:08:02.915Z,27.75
2019-03-21T12:11:26.911Z,27.47
2019-03-21T12:14:51.024Z,28.09
2019-03-21T12:18:15.027Z,26.17
2019-03-21T12:21:39.244Z,26.73
2019-03-21T12:25:04.786Z,26.01
2019-03-21T12:28:28.771Z,26.69
2019-03-21T12:31:52.821Z,25.61
2019-03-21T12:35:17.006Z,25.90
2019-03-21T12:38:41.029Z,28.12
2019-03-21T12:42:05.249Z,25.06
2019-03-21T12:45:29.303Z,23.41
2019-03-21T12:48:53.499Z,25.16
2019-03-21T12:52:17.485Z,25.23
2019-03-21T12:55:41.591Z,23.61
2019-03-21T12:59:05.551Z,23.53
2019-03-21T13:02:32.267Z,22.04
2019-03-21T13:05:55.556Z,22.81
2019-03-21T13:09:19.474Z,22.46
2019-03-21T13:12:43.475Z,24.19
2019-03-21T13:16:08.532Z,24.10
2019-03-21T13:19:32.582Z,22.95
2019-03-21T13:22:56.732Z,21.55
2019-03-21T13:26:20.733Z,23.22
2019-03-21T13:29:44.717Z,22.13
2019-03-21T13:33:08.748Z,21.33
2019-03-21T13:36:32.781Z,22.92
2019-03-21T13:39:56.725Z,22.57
2019-03-21T13:43:21.061Z,21.69
2019-03-21T13:46:45.634Z,20.71
2019-03-21T13:50:09.863Z,19.25
2019-03-21T13:53:34.471Z,21.71
2019-03-21T13:56:58.519Z,20.37
2019-03-21T14:00:22.893Z,19.94
2019-03-21T14:03:46.964Z,23.14
2019-03-21T14:07:10.973Z,22.61
2019-03-21T14:10:35.035Z,20.97
2019-03-21T14:13:58.977Z,21.82
2019-03-21T14:17:23.141Z,22.08
2019-03-21T14:20:47.196Z,24.02
2019-03-21T14:24:11.215Z,22.08
2019-03-21T14:27:35.271Z,23.22
2019-03-21T14:30:59.266Z,23.45
2019-03-21T14:34:23.661Z,21.28
2019-03-21T14:37:47.750Z,21.12
2019-03-21T14:41:11.941Z,20.64
2019-03-21T14:44:36.234Z,19.53
2019-03-21T14:48:00.139Z,21.59
2019-03-21T14:51:24.244Z,21.65
2019-03-21T14:54:48.198Z,20.40
2019-03-21T14:58:12.296Z,20.42
2019-03-21T15:01:36.231Z,20.12
2019-03-21T15:05:01.371Z,23.01
2019-03-21T15:08:25.549Z,23.17
2019-03-21T15:11:50.400Z,21.71
2019-03-21T15:15:14.965Z,24.67
2019-03-21T15:18:38.939Z,24.98
2019-03-21T15:22:02.914Z,23.79
2019-03-21T15:25:26.972Z,23.20
2019-03-21T15:28:51.218Z,22.52
2019-03-21T15:32:15.616Z,22.30
2019-03-21T15:35:39.487Z,25.15
2019-03-21T15:39:05.804Z,23.31
2019-03-21T15:42:29.891Z,23.02
2019-03-21T15:45:53.850Z,23.56
2019-03-21T15:49:17.927Z,22.98
2019-03-21T15:52:41.933Z,22.06
2019-03-21T15:56:06.018Z,22.33
2019-03-21T15:59:31.754Z,21.13
2019-03-21T16:02:55.823Z,21.10
2019-03-21T16:06:19.896Z,20.31
2019-03-21T16:09:43.903Z,20.87
2019-03-21T16:13:07.900Z,20.60
2019-03-21T16:16:32.329Z,20.27
2019-03-21T16:19:56.340Z,20.19
2019-03-21T16:23:20.251Z,19.84
2019-03-21T16:26:44.634Z,21.48
2019-03-21T16:30:08.633Z,21.69
2019-03-21T16:33:32.949Z,21.82
2019-03-21T16:37:00.097Z,22.08
2019-03-21T16:40:24.699Z,22.55
2019-03-21T16:43:50.819Z,22.85
2019-03-21T16:47:15.326Z,23.54
2019-03-21T16:50:39.717Z,25.51
2019-03-21T16:54:16.160Z,25.13
2019-03-21T16:57:33.084Z,28.89
2019-03-21T17:00:57.403Z,30.45
2019-03-21T17:04:21.502Z,33.14
2019-03-21T17:07:45.855Z,36.89
2019-03-21T17:11:10.555Z,38.70
2019-03-21T17:14:34.660Z,41.90
2019-03-21T17:17:58.635Z,42.27
2019-03-21T17:21:22.704Z,42.10
2019-03-21T17:24:46.731Z,42.36
2019-03-21T17:28:10.589Z,42.59
2019-03-21T17:31:35.015Z,43.62
2019-03-21T17:34:58.986Z,45.02
2019-03-21T17:38:22.940Z,45.00
2019-03-21T17:41:46.916Z,45.61
2019-03-21T17:45:14.109Z,46.77
2019-03-21T17:48:38.131Z,46.79
2019-03-21T17:52:02.489Z,47.21
2019-03-21T17:55:26.532Z,47.43
2019-03-21T17:58:50.782Z,47.44
2019-03-21T18:02:14.731Z,48.01
2019-03-21T18:05:40.015Z,49.32
2019-03-21T18:09:06.889Z,49.00
2019-03-21T18:12:30.961Z,49.62
2019-03-21T18:16:00.541Z,49.54
2019-03-21T18:19:24.979Z,50.28
2019-03-21T18:22:49.370Z,50.68
2019-03-21T18:26:13.665Z,51.52
2019-03-21T18:29:38.240Z,51.15
2019-03-21T18:33:02.384Z,51.78
2019-03-21T18:36:26.560Z,51.60
2019-03-21T18:39:50.545Z,52.77
2019-03-21T18:43:14.675Z,53.14
2019-03-21T18:46:38.805Z,52.66
2019-03-21T18:50:03.377Z,53.32
2019-03-21T18:53:27.873Z,53.66
2019-03-21T18:56:52.212Z,53.86
2019-03-21T19:00:17.411Z,53.29
2019-03-21T19:03:41.489Z,55.55
2019-03-21T19:07:05.608Z,56.41
2019-03-21T19:10:29.870Z,56.64
2019-03-21T19:13:54.029Z,56.90
2019-03-21T19:17:18.053Z,56.91
2019-03-21T19:20:42.127Z,55.97
2019-03-21T19:24:07.038Z,56.83
2019-03-21T19:27:31.525Z,57.63
2019-03-21T19:30:55.560Z,58.77
2019-03-21T19:34:19.886Z,56.99
2019-03-21T19:37:44.543Z,58.64
2019-03-21T19:41:09.036Z,58.17
2019-03-21T19:44:33.225Z,58.68
2019-03-21T19:47:57.472Z,58.65
2019-03-21T19:51:21.826Z,59.52
2019-03-21T19:54:47.084Z,59.85
2019-03-21T19:58:11.903Z,59.85
2019-03-21T20:01:36.163Z,60.38
2019-03-21T20:05:00.970Z,60.33
2019-03-21T20:08:25.486Z,61.25
2019-03-21T20:11:51.474Z,61.65
2019-03-21T20:15:17.722Z,62.09
2019-03-21T20:18:42.090Z,62.48
2019-03-21T20:22:07.247Z,62.31
2019-03-21T20:25:42.260Z,61.68
2019-03-21T20:28:58.147Z,62.70
2019-03-21T20:32:22.409Z,62.68
2019-03-21T20:35:46.764Z,63.24
2019-03-21T20:39:11.272Z,63.21
2019-03-21T20:42:35.740Z,64.27
2019-03-21T20:46:00.102Z,64.52
2019-03-21T20:49:24.619Z,64.00
2019-03-21T20:52:48.616Z,64.77
2019-03-21T20:56:12.805Z,64.96
2019-03-21T20:59:39.571Z,65.99
2019-03-21T21:03:04.090Z,66.04
2019-03-21T21:06:28.462Z,66.11
2019-03-21T21:09:52.547Z,65.91
2019-03-21T21:13:16.663Z,66.38
2019-03-21T21:16:40.945Z,66.90
2019-03-21T21:20:07.594Z,67.89
2019-03-21T21:23:31.762Z,67.04
2019-03-21T21:26:55.829Z,66.88
2019-03-21T21:30:20.096Z,67.76
2019-03-21T21:33:45.190Z,67.81
2019-03-21T21:37:10.578Z,67.80
2019-03-21T21:40:35.018Z,67.87
2019-03-21T21:43:59.257Z,67.61
2019-03-21T21:47:23.422Z,68.97
2019-03-21T21:50:47.794Z,68.98
2019-03-21T21:54:11.734Z,68.53
2019-03-21T21:57:35.776Z,68.47
2019-03-21T22:00:59.955Z,69.37
2019-03-21T22:04:23.942Z,68.85
2019-03-21T22:07:48.367Z,69.47
2019-03-21T22:11:12.418Z,68.42
2019-03-21T22:14:36.635Z,68.87
2019-03-21T22:18:00.910Z,68.74
2019-03-21T22:21:24.898Z,69.47
2019-03-21T22:24:49.160Z,70.40
2019-03-21T22:28:13.242Z,70.07
2019-03-21T22:31:37.366Z,70.59
2019-03-21T22:35:01.395Z,70.21
2019-03-21T22:38:25.430Z,70.23
2019-03-21T22:41:49.407Z,70.10
2019-03-21T22:45:13.692Z,69.96
2019-03-21T22:48:37.679Z,69.84
2019-03-21T22:52:01.702Z,70.92
2019-03-21T22:55:25.715Z,70.59
2019-03-21T22:58:49.777Z,70.67
2019-03-21T23:02:14.157Z,70.22
2019-03-21T23:05:38.239Z,71.02
2019-03-21T23:09:02.338Z,70.88
2019-03-21T23:12:27.904Z,71.30
2019-03-21T23:15:51.879Z,71.63
2019-03-21T23:19:15.846Z,71.85
2019-03-21T23:22:40.292Z,72.01
2019-03-21T23:26:04.638Z,71.05
2019-03-21T23:29:28.700Z,71.62
2019-03-21T23:32:52.844Z,72.48
2019-03-21T23:36:16.881Z,72.03
2019-03-21T23:39:40.956Z,71.93
2019-03-21T23:43:05.065Z,71.72
2019-03-21T23:46:29.003Z,72.51
2019-03-21T23:49:52.959Z,72.17
2019-03-21T23:53:16.877Z,72.18
2019-03-21T23:56:40.854Z,72.26
